Time;durP1;ratioP1;P1;durP2;ratioP2;P2;SDS_P1;SDS_P2;PMS_P1;PMS_P2;Temp;Humidity;BMP_temperature;BMP_pressure;BME280_temperature;BME280_humidity;BME280_pressure;Samples;Min_cycle;Max_cycle;Signal;HPM_P1;HPM_P2
2023/09/22 00:01:04;;;;;;;2.63;0.90;;;19.40;99.90;;;;;;4204986;28;20222;-82
2023/09/22 00:03:07;;;;;;;2.33;1.00;;;19.30;99.90;;;;;;4196820;28;20206;-82
2023/09/22 00:05:13;;;;;;;3.37;0.90;;;19.30;99.90;;;;;;4191816;28;20751;-81
2023/09/22 00:07:15;;;;;;;1.70;0.80;;;19.30;99.90;;;;;;4192550;28;20561;-82
2023/09/22 00:09:17;;;;;;;1.63;0.87;;;19.20;99.90;;;;;;4197740;28;20255;-82
2023/09/22 00:11:19;;;;;;;2.53;0.70;;;19.20;99.90;;;;;;4190638;28;20234;-81
2023/09/22 00:13:21;;;;;;;2.20;0.80;;;19.10;99.90;;;;;;4192058;28;20210;-82
2023/09/22 00:15:23;;;;;;;2.83;0.87;;;19.10;99.90;;;;;;4191719;28;20775;-81
2023/09/22 00:17:25;;;;;;;4.03;0.80;;;19.10;99.90;;;;;;4190281;28;20214;-82
2023/09/22 00:19:27;;;;;;;3.20;0.67;;;19.00;99.90;;;;;;4191645;28;20267;-82
2023/09/22 00:21:30;;;;;;;1.83;0.77;;;19.00;99.90;;;;;;4193154;28;20903;-82
2023/09/22 00:23:32;;;;;;;1.10;0.70;;;18.90;99.90;;;;;;4192495;28;20214;-81
2023/09/22 00:25:34;;;;;;;1.60;0.60;;;18.90;99.90;;;;;;4191348;28;20209;-81
2023/09/22 00:27:35;;;;;;;1.03;0.60;;;18.90;99.90;;;;;;4191805;28;20263;-81
2023/09/22 00:29:37;;;;;;;2.90;0.80;;;18.90;99.90;;;;;;4190049;28;20218;-81
2023/09/22 00:31:39;;;;;;;1.90;0.80;;;18.80;99.90;;;;;;4191841;28;20275;-81
2023/09/22 00:33:41;;;;;;;1.63;0.60;;;18.80;99.90;;;;;;4192738;28;20209;-82
2023/09/22 00:35:43;;;;;;;1.90;0.60;;;18.70;99.90;;;;;;4190442;28;20251;-81
2023/09/22 00:37:46;;;;;;;1.53;0.80;;;18.70;99.90;;;;;;4193397;28;20210;-80
2023/09/22 00:39:48;;;;;;;2.00;0.70;;;18.70;99.90;;;;;;4194971;28;20255;-81
2023/09/22 00:41:50;;;;;;;1.10;0.60;;;18.70;99.90;;;;;;4191055;28;20226;-81
2023/09/22 00:43:52;;;;;;;2.07;0.60;;;18.60;99.90;;;;;;4193860;28;20205;-81
2023/09/22 00:45:54;;;;;;;1.07;0.67;;;18.50;99.90;;;;;;4192804;28;20229;-81
2023/09/22 00:47:56;;;;;;;1.37;0.93;;;18.50;99.90;;;;;;4195808;28;20724;-81
2023/09/22 00:49:58;;;;;;;3.13;0.60;;;18.30;99.90;;;;;;4194308;28;20545;-81
2023/09/22 00:52:00;;;;;;;1.03;0.57;;;18.30;99.90;;;;;;4196834;28;20226;-81
2023/09/22 00:54:04;;;;;;;0.77;0.40;;;18.20;99.90;;;;;;4193477;28;20617;-82
2023/09/22 00:56:07;;;;;;;2.07;0.43;;;18.20;99.90;;;;;;4193123;28;20916;-82
2023/09/22 00:58:09;;;;;;;0.63;0.60;;;18.10;99.90;;;;;;4187842;28;20213;-81
2023/09/22 01:00:12;;;;;;;0.57;0.40;;;18.00;99.90;;;;;;4194683;28;20210;-82
2023/09/22 01:02:14;;;;;;;1.57;0.50;;;17.90;99.90;;;;;;4197403;28;20228;-81
2023/09/22 01:04:16;;;;;;;1.17;0.50;;;17.80;99.90;;;;;;4195161;28;20198;-80
2023/09/22 01:06:19;;;;;;;0.80;0.50;;;17.70;99.90;;;;;;4197687;28;20220;-81
2023/09/22 01:08:21;;;;;;;2.93;0.80;;;17.70;99.90;;;;;;4197701;28;20213;-82
2023/09/22 01:10:24;;;;;;;1.17;0.50;;;17.60;99.90;;;;;;4196044;28;20218;-82
2023/09/22 01:12:26;;;;;;;1.57;0.50;;;17.50;99.90;;;;;;4196096;28;20846;-82
2023/09/22 01:14:28;;;;;;;1.00;0.50;;;17.50;99.90;;;;;;4202494;28;20252;-82
2023/09/22 01:16:30;;;;;;;0.97;0.40;;;17.50;99.90;;;;;;4196018;28;20670;-81
2023/09/22 01:18:32;;;;;;;1.17;0.60;;;17.40;99.90;;;;;;4193995;28;20626;-81
2023/09/22 01:20:39;;;;;;;1.33;0.60;;;17.30;99.90;;;;;;4196699;28;20232;-81
2023/09/22 01:22:42;;;;;;;1.23;0.50;;;17.20;99.90;;;;;;4202556;28;20213;-81
2023/09/22 01:24:44;;;;;;;3.73;0.60;;;17.20;99.90;;;;;;4197169;28;20201;-81
2023/09/22 01:26:46;;;;;;;0.67;0.47;;;17.10;99.90;;;;;;4197721;28;20224;-81
2023/09/22 01:28:48;;;;;;;1.13;0.50;;;17.00;99.90;;;;;;4200392;28;20562;-80
2023/09/22 01:30:50;;;;;;;3.70;0.50;;;16.90;99.90;;;;;;4199952;28;20667;-81
2023/09/22 01:32:52;;;;;;;7.27;0.70;;;16.80;99.90;;;;;;4196221;28;20247;-80
2023/09/22 01:34:54;;;;;;;1.83;0.60;;;16.70;99.90;;;;;;4197048;28;20212;-81
2023/09/22 01:36:57;;;;;;;1.00;0.50;;;16.50;99.90;;;;;;4199684;28;20300;-80
2023/09/22 01:39:01;;;;;;;1.57;0.43;;;16.40;99.90;;;;;;4201482;28;20249;-82
2023/09/22 01:41:03;;;;;;;1.10;0.90;;;16.30;99.90;;;;;;4195960;28;20781;-80
2023/09/22 01:43:04;;;;;;;1.10;0.50;;;16.20;99.90;;;;;;4198217;28;20347;-81
2023/09/22 01:45:07;;;;;;;0.90;0.60;;;16.20;99.90;;;;;;4197553;28;20201;-81
2023/09/22 01:47:09;;;;;;;3.80;0.77;;;16.10;99.90;;;;;;4204609;28;20209;-80
2023/09/22 01:49:11;;;;;;;2.27;0.60;;;16.00;99.90;;;;;;4196562;28;20212;-80
2023/09/22 01:51:12;;;;;;;2.50;0.70;;;16.00;99.90;;;;;;4198267;28;20220;-80
2023/09/22 01:53:16;;;;;;;0.80;0.50;;;16.00;99.90;;;;;;4196536;28;20630;-80
2023/09/22 01:55:20;;;;;;;2.10;0.60;;;15.90;99.90;;;;;;4200570;28;20206;-79
2023/09/22 01:57:22;;;;;;;3.47;0.83;;;15.90;99.90;;;;;;4200938;28;20206;-79
2023/09/22 01:59:24;;;;;;;1.20;0.67;;;15.90;99.90;;;;;;4194972;28;20262;-80
2023/09/22 02:01:26;;;;;;;4.07;0.80;;;15.90;99.90;;;;;;4196660;28;20226;-80
2023/09/22 02:03:29;;;;;;;3.90;0.80;;;15.90;99.90;;;;;;4198243;28;20618;-79
2023/09/22 02:05:31;;;;;;;2.23;0.63;;;15.80;99.90;;;;;;4197707;28;20216;-81
2023/09/22 02:07:33;;;;;;;6.77;0.80;;;15.80;99.90;;;;;;4196213;28;20201;-79
2023/09/22 02:09:35;;;;;;;2.90;0.80;;;16.00;99.90;;;;;;4198353;28;20574;-79
2023/09/22 02:11:40;;;;;;;2.80;0.63;;;15.70;99.90;;;;;;4192174;28;20237;-79
2023/09/22 02:13:42;;;;;;;2.20;0.73;;;15.70;99.90;;;;;;4191024;28;20242;-79
2023/09/22 02:15:44;;;;;;;0.63;0.60;;;15.70;99.90;;;;;;4197571;28;20260;-79
2023/09/22 02:17:46;;;;;;;1.90;0.63;;;15.60;99.90;;;;;;4196055;28;20289;-79
2023/09/22 02:19:48;;;;;;;1.57;0.70;;;15.60;99.90;;;;;;4189342;28;20225;-78
2023/09/22 02:21:50;;;;;;;3.50;0.83;;;15.60;99.90;;;;;;4196882;28;20736;-78
2023/09/22 02:23:52;;;;;;;2.13;0.80;;;15.60;99.90;;;;;;4195730;28;20256;-78
2023/09/22 02:25:54;;;;;;;0.70;0.63;;;15.60;99.90;;;;;;4195516;28;20210;-78
2023/09/22 02:27:58;;;;;;;4.23;0.90;;;15.60;99.90;;;;;;4195761;28;20240;-79
2023/09/22 02:30:00;;;;;;;2.43;0.90;;;15.60;99.90;;;;;;4195686;28;20558;-78
2023/09/22 02:32:02;;;;;;;1.47;0.80;;;15.50;99.90;;;;;;4198332;28;20244;-78
2023/09/22 02:34:04;;;;;;;1.57;0.90;;;15.50;99.90;;;;;;4199147;28;20745;-79
2023/09/22 02:36:07;;;;;;;3.93;1.13;;;15.50;99.90;;;;;;4196695;28;20218;-78
2023/09/22 02:38:08;;;;;;;2.47;1.40;;;15.50;99.90;;;;;;4195705;28;20219;-78
2023/09/22 02:40:13;;;;;;;2.37;1.10;;;15.50;99.90;;;;;;4172408;28;20207;-78
2023/09/22 02:42:15;;;;;;;5.53;0.90;;;15.50;99.90;;;;;;4191039;28;20227;-78
2023/09/22 02:44:19;;;;;;;3.63;0.90;;;15.50;99.90;;;;;;4193651;28;20201;-78
2023/09/22 02:46:21;;;;;;;1.20;0.77;;;15.60;99.90;;;;;;4187757;28;20278;-78
2023/09/22 02:48:21;;;;;;;2.23;0.70;;;15.50;99.90;;;;;;4194906;28;20210;-78
2023/09/22 02:50:23;;;;;;;1.63;0.90;;;15.50;99.90;;;;;;4194773;28;20315;-78
2023/09/22 02:52:25;;;;;;;4.37;0.80;;;15.50;99.90;;;;;;4190972;28;20643;-78
2023/09/22 02:54:27;;;;;;;1.70;0.60;;;15.50;99.90;;;;;;4193711;28;20205;-79
2023/09/22 02:56:29;;;;;;;1.30;0.70;;;15.50;99.90;;;;;;4193480;28;20213;-79
2023/09/22 02:58:31;;;;;;;1.63;0.67;;;15.50;99.90;;;;;;4189072;28;20220;-79
2023/09/22 03:00:34;;;;;;;4.37;0.70;;;15.60;99.90;;;;;;4197669;28;20206;-80
2023/09/22 03:02:35;;;;;;;2.20;0.60;;;15.50;99.90;;;;;;4194469;28;20198;-80
2023/09/22 03:04:37;;;;;;;1.07;0.63;;;15.40;99.90;;;;;;4193394;28;20583;-79
2023/09/22 03:06:39;;;;;;;3.43;0.80;;;15.40;99.90;;;;;;4197553;28;20202;-78
2023/09/22 03:08:40;;;;;;;1.70;0.70;;;15.40;99.90;;;;;;4193561;28;20221;-78
2023/09/22 03:10:42;;;;;;;1.07;0.60;;;15.40;99.90;;;;;;4194599;28;20628;-80
2023/09/22 03:12:44;;;;;;;1.30;0.70;;;15.40;99.90;;;;;;4191758;28;20283;-80
2023/09/22 03:14:48;;;;;;;1.37;0.80;;;15.40;99.90;;;;;;4191071;28;20279;-80
2023/09/22 03:16:53;;;;;;;2.13;1.10;;;15.40;99.90;;;;;;4197490;28;20213;-79
2023/09/22 03:18:54;;;;;;;2.50;0.70;;;15.40;99.90;;;;;;4188570;28;20210;-79
2023/09/22 03:20:56;;;;;;;0.73;0.70;;;15.40;99.90;;;;;;4200710;28;20251;-80
2023/09/22 03:22:58;;;;;;;2.20;0.80;;;15.40;99.90;;;;;;4199893;28;20203;-80
2023/09/22 03:24:59;;;;;;;1.40;0.60;;;15.40;99.90;;;;;;4198983;28;20211;-80
2023/09/22 03:27:02;;;;;;;2.27;0.97;;;15.30;99.90;;;;;;4195257;28;20197;-80
2023/09/22 03:29:04;;;;;;;1.97;0.80;;;15.30;99.90;;;;;;4191805;28;20206;-79
2023/09/22 03:31:06;;;;;;;1.70;0.70;;;15.30;99.90;;;;;;4190955;28;20234;-78
2023/09/22 03:33:09;;;;;;;1.20;0.70;;;15.30;99.90;;;;;;4196420;28;20233;-79
2023/09/22 03:35:11;;;;;;;1.80;0.93;;;15.30;99.90;;;;;;4194393;28;20205;-80
2023/09/22 03:37:13;;;;;;;1.17;0.60;;;15.30;99.90;;;;;;4189853;28;20252;-80
2023/09/22 03:39:16;;;;;;;1.10;0.60;;;15.30;99.90;;;;;;4188113;28;20202;-80
2023/09/22 03:41:22;;;;;;;0.90;0.70;;;15.20;99.90;;;;;;4193276;28;20237;-79
2023/09/22 03:43:24;;;;;;;3.70;0.73;;;15.20;99.90;;;;;;4194898;28;20221;-78
2023/09/22 03:45:26;;;;;;;0.70;0.70;;;15.20;99.90;;;;;;4197493;28;20263;-80
2023/09/22 03:47:28;;;;;;;0.60;0.50;;;15.30;99.90;;;;;;4187464;28;20239;-79
2023/09/22 03:49:31;;;;;;;2.23;0.87;;;15.20;99.90;;;;;;4198100;28;20229;-79
2023/09/22 03:51:33;;;;;;;3.40;0.70;;;15.20;99.90;;;;;;4199080;28;20655;-79
2023/09/22 03:53:35;;;;;;;4.30;0.70;;;15.20;99.90;;;;;;4205880;28;20236;-77
2023/09/22 03:55:38;;;;;;;0.97;0.60;;;15.20;99.90;;;;;;4202228;28;20202;-79
2023/09/22 03:57:39;;;;;;;1.23;0.60;;;15.20;99.90;;;;;;4200286;28;20498;-80
2023/09/22 03:59:41;;;;;;;3.03;0.83;;;15.20;99.90;;;;;;4197719;28;20335;-79
2023/09/22 04:01:44;;;;;;;5.53;0.73;;;15.20;99.90;;;;;;4199018;28;20225;-79
2023/09/22 04:03:47;;;;;;;2.73;0.80;;;15.20;99.90;;;;;;4198504;28;20289;-79
2023/09/22 04:05:50;;;;;;;1.30;0.80;;;15.10;99.90;;;;;;4198518;28;20209;-79
2023/09/22 04:07:54;;;;;;;2.00;1.00;;;15.10;99.90;;;;;;4195888;28;20206;-79
2023/09/22 04:09:56;;;;;;;1.23;0.97;;;15.10;99.90;;;;;;4198665;28;20229;-77
2023/09/22 04:11:58;;;;;;;1.80;1.00;;;15.20;99.90;;;;;;4195222;28;20221;-78
2023/09/22 04:14:00;;;;;;;2.67;1.00;;;15.10;99.90;;;;;;4195151;28;20599;-77
2023/09/22 04:16:03;;;;;;;2.97;1.07;;;15.00;99.90;;;;;;4191470;28;20217;-78
2023/09/22 04:18:07;;;;;;;8.70;0.83;;;15.10;99.90;;;;;;4193323;28;20617;-77
2023/09/22 04:20:12;;;;;;;1.77;0.90;;;15.10;99.90;;;;;;4195872;28;20198;-78
2023/09/22 04:22:16;;;;;;;3.13;1.00;;;15.10;99.90;;;;;;4181183;28;20226;-77
2023/09/22 04:24:20;;;;;;;2.43;1.00;;;15.10;99.90;;;;;;4195812;28;20220;-79
2023/09/22 04:26:27;;;;;;;2.20;0.90;;;15.10;99.90;;;;;;4191054;28;20205;-78
2023/09/22 04:28:28;;;;;;;1.90;0.90;;;15.10;99.90;;;;;;4197436;28;20214;-77
2023/09/22 04:30:30;;;;;;;1.53;0.70;;;15.00;99.90;;;;;;4192842;28;20201;-79
2023/09/22 04:32:33;;;;;;;7.70;1.10;;;15.00;99.90;;;;;;4193089;28;20294;-78
2023/09/22 04:34:36;;;;;;;1.13;0.90;;;15.10;99.90;;;;;;4195954;28;20198;-77
2023/09/22 04:36:40;;;;;;;3.13;0.87;;;15.10;99.90;;;;;;4195726;28;20205;-80
2023/09/22 04:38:44;;;;;;;2.33;0.90;;;15.00;99.90;;;;;;4198257;28;20628;-80
2023/09/22 04:40:47;;;;;;;2.57;1.03;;;15.10;99.90;;;;;;4196145;28;20205;-78
2023/09/22 04:42:48;;;;;;;2.20;0.97;;;15.00;99.90;;;;;;4199212;28;20213;-78
2023/09/22 04:44:51;;;;;;;1.80;0.77;;;15.00;99.90;;;;;;4197097;28;20222;-79
2023/09/22 04:46:53;;;;;;;2.33;0.70;;;15.00;99.90;;;;;;4198551;28;20209;-77
2023/09/22 04:48:55;;;;;;;1.60;0.80;;;15.00;99.90;;;;;;4196651;28;20631;-77
2023/09/22 04:50:58;;;;;;;2.03;1.00;;;15.10;99.90;;;;;;4196683;28;20954;-77
2023/09/22 04:53:00;;;;;;;1.20;0.67;;;15.00;99.90;;;;;;4198908;28;20293;-79
2023/09/22 04:55:04;;;;;;;1.60;0.80;;;15.00;99.90;;;;;;4197255;28;20205;-78
2023/09/22 04:57:06;;;;;;;1.43;0.70;;;15.10;99.90;;;;;;4194483;28;20206;-81
2023/09/22 04:59:09;;;;;;;1.60;0.90;;;15.10;99.90;;;;;;4193713;28;20209;-79
2023/09/22 05:01:11;;;;;;;1.03;0.80;;;15.00;99.90;;;;;;4198829;28;20309;-79
2023/09/22 05:03:14;;;;;;;3.63;1.20;;;14.80;99.90;;;;;;4198204;28;20210;-79
2023/09/22 05:05:16;;;;;;;2.20;1.00;;;15.00;99.90;;;;;;4196602;28;20203;-79
2023/09/22 05:07:18;;;;;;;4.30;2.03;;;15.00;99.90;;;;;;4196850;28;20209;-82
2023/09/22 05:09:20;;;;;;;8.77;4.80;;;15.00;99.90;;;;;;4195648;28;20681;-79
2023/09/22 05:11:24;;;;;;;4.07;1.90;;;15.00;99.90;;;;;;4199310;28;20228;-78
2023/09/22 05:13:25;;;;;;;2.20;1.40;;;15.00;99.90;;;;;;4197852;28;20318;-78
2023/09/22 05:15:27;;;;;;;2.07;1.10;;;15.00;99.90;;;;;;4195941;28;20280;-79
2023/09/22 05:17:29;;;;;;;1.40;0.90;;;15.00;99.90;;;;;;4199137;28;20620;-78
2023/09/22 05:19:31;;;;;;;4.20;1.23;;;15.00;99.90;;;;;;4193894;28;20673;-81
2023/09/22 05:21:33;;;;;;;1.93;1.00;;;15.00;99.90;;;;;;4195309;28;20237;-78
2023/09/22 05:23:35;;;;;;;1.53;1.00;;;15.00;99.90;;;;;;4194109;28;20277;-78
2023/09/22 05:25:41;;;;;;;4.50;1.10;;;15.00;99.90;;;;;;4192460;28;20291;-78
2023/09/22 05:27:47;;;;;;;1.17;0.90;;;14.90;99.90;;;;;;4194574;28;20209;-79
2023/09/22 05:29:52;;;;;;;2.27;0.90;;;15.00;99.90;;;;;;4193361;28;20206;-76
2023/09/22 05:31:54;;;;;;;2.00;1.00;;;14.90;99.90;;;;;;4195141;28;20234;-77
2023/09/22 05:33:57;;;;;;;2.83;1.23;;;15.00;99.90;;;;;;4195289;28;20232;-76
2023/09/22 05:35:58;;;;;;;1.53;1.20;;;15.00;99.90;;;;;;4196072;28;20198;-76
2023/09/22 05:38:01;;;;;;;2.50;1.23;;;15.00;99.90;;;;;;4190491;28;20205;-76
2023/09/22 05:40:10;;;;;;;1.70;1.03;;;15.00;99.90;;;;;;4195950;28;20214;-77
2023/09/22 05:42:12;;;;;;;2.17;1.30;;;15.00;99.90;;;;;;4192468;28;20291;-76
2023/09/22 05:44:17;;;;;;;1.20;0.80;;;15.00;99.90;;;;;;4191709;28;20271;-78
2023/09/22 05:46:19;;;;;;;1.33;1.00;;;15.00;99.90;;;;;;4193580;28;21583;-73
2023/09/22 05:48:21;;;;;;;3.93;1.03;;;15.00;99.90;;;;;;4191288;28;20214;-77
2023/09/22 05:50:24;;;;;;;2.50;1.13;;;15.00;99.90;;;;;;4194500;28;20288;-76
2023/09/22 05:52:26;;;;;;;1.70;1.10;;;15.00;99.90;;;;;;4186650;28;20743;-76
2023/09/22 05:54:28;;;;;;;1.33;0.93;;;15.00;99.90;;;;;;4189787;28;20221;-77
2023/09/22 05:56:30;;;;;;;1.90;0.87;;;15.00;99.90;;;;;;4190308;28;20210;-79
2023/09/22 05:58:31;;;;;;;4.17;1.30;;;15.00;99.90;;;;;;4186904;28;20271;-77
2023/09/22 06:00:35;;;;;;;5.37;1.00;;;15.00;99.90;;;;;;4196468;28;20210;-73
2023/09/22 06:02:36;;;;;;;4.03;1.30;;;15.00;99.90;;;;;;4189372;28;20259;-78
2023/09/22 06:04:38;;;;;;;2.97;0.97;;;15.00;99.90;;;;;;4193488;28;20561;-81
2023/09/22 06:06:42;;;;;;;2.20;0.90;;;15.00;99.90;;;;;;4189662;28;20214;-76
2023/09/22 06:08:45;;;;;;;1.70;1.33;;;15.00;99.90;;;;;;4195097;28;20232;-79
2023/09/22 06:10:47;;;;;;;3.30;1.00;;;15.00;99.90;;;;;;4192555;28;20255;-76
2023/09/22 06:12:50;;;;;;;2.27;1.07;;;15.00;99.90;;;;;;4193419;28;20653;-79
2023/09/22 06:15:02;;;;;;;3.63;1.10;;;15.00;99.90;;;;;;4196068;28;20257;-78
2023/09/22 06:17:05;;;;;;;2.13;1.10;;;15.10;99.90;;;;;;4195955;28;20738;-76
2023/09/22 06:19:10;;;;;;;2.03;1.33;;;15.10;99.90;;;;;;4192279;28;20218;-79
2023/09/22 06:21:12;;;;;;;3.23;1.40;;;15.10;99.90;;;;;;4194993;28;20218;-79
2023/09/22 06:23:14;;;;;;;3.47;1.30;;;15.10;99.90;;;;;;4195484;28;20210;-77
2023/09/22 06:25:16;;;;;;;2.90;1.40;;;15.10;99.90;;;;;;4190111;28;20889;-76
2023/09/22 06:27:18;;;;;;;3.53;1.47;;;15.10;99.90;;;;;;4195355;28;20214;-78
2023/09/22 06:29:20;;;;;;;3.80;1.40;;;15.10;99.90;;;;;;4189270;28;20228;-77
2023/09/22 06:31:22;;;;;;;2.63;1.33;;;15.20;99.90;;;;;;4189769;28;20237;-77
2023/09/22 06:33:24;;;;;;;2.17;1.50;;;15.20;99.90;;;;;;4188267;28;20270;-75
2023/09/22 06:35:26;;;;;;;2.80;1.40;;;15.20;99.90;;;;;;4185015;28;20218;-78
2023/09/22 06:37:28;;;;;;;6.17;2.03;;;15.20;99.90;;;;;;4189988;28;20206;-78
2023/09/22 06:39:31;;;;;;;2.10;1.23;;;15.20;99.90;;;;;;4191218;28;20207;-76
2023/09/22 06:41:34;;;;;;;6.73;1.57;;;15.30;99.90;;;;;;4190850;28;20787;-80
2023/09/22 06:43:36;;;;;;;2.03;1.40;;;15.20;99.90;;;;;;4190018;28;20241;-74
2023/09/22 06:45:39;;;;;;;1.87;1.40;;;15.20;99.90;;;;;;4191953;28;20285;-79
2023/09/22 06:47:41;;;;;;;2.67;1.30;;;15.30;99.90;;;;;;4190806;28;20194;-77
2023/09/22 06:49:44;;;;;;;2.70;1.40;;;15.30;99.90;;;;;;4171807;28;20199;-77
2023/09/22 06:51:48;;;;;;;3.27;1.30;;;15.30;99.90;;;;;;4191693;28;20233;-75
2023/09/22 06:53:50;;;;;;;2.33;1.50;;;15.30;99.90;;;;;;4194792;28;20602;-78
2023/09/22 06:56:03;;;;;;;1.97;1.37;;;15.40;99.90;;;;;;4176722;28;20313;-75
2023/09/22 06:58:07;;;;;;;2.90;1.43;;;15.40;99.90;;;;;;4185280;28;20268;-81
2023/09/22 07:00:16;;;;;;;4.13;1.30;;;15.40;99.90;;;;;;4188025;28;20696;-75
2023/09/22 07:02:17;;;;;;;4.27;1.50;;;15.40;99.90;;;;;;4178045;28;20712;-75
2023/09/22 07:04:21;;;;;;;3.53;1.50;;;15.40;99.90;;;;;;4186797;28;20794;-75
2023/09/22 07:06:24;;;;;;;2.70;1.50;;;15.40;99.90;;;;;;4189031;28;20689;-74
2023/09/22 07:08:25;;;;;;;2.80;1.23;;;15.40;99.90;;;;;;4193078;28;20264;-75
2023/09/22 07:10:28;;;;;;;2.50;1.70;;;15.40;99.90;;;;;;4188935;28;20202;-77
2023/09/22 07:12:31;;;;;;;2.30;1.37;;;15.40;99.90;;;;;;4186867;28;20251;-77
2023/09/22 07:14:33;;;;;;;1.77;1.30;;;15.40;99.90;;;;;;4190258;28;20222;-77
2023/09/22 07:16:35;;;;;;;4.53;1.60;;;15.50;99.90;;;;;;4189081;28;20215;-78
2023/09/22 07:18:37;;;;;;;2.23;1.53;;;15.50;99.90;;;;;;4188027;28;20214;-77
2023/09/22 07:20:44;;;;;;;2.27;1.40;;;15.50;99.90;;;;;;4189406;28;20888;-78
2023/09/22 07:22:47;;;;;;;1.80;1.50;;;15.50;99.90;;;;;;4185761;28;20586;-76
2023/09/22 07:24:52;;;;;;;3.03;1.20;;;15.50;99.90;;;;;;4192864;28;20197;-78
2023/09/22 07:26:55;;;;;;;2.23;1.30;;;15.50;99.90;;;;;;4191768;28;20209;-76
2023/09/22 07:28:58;;;;;;;4.30;2.70;;;15.50;99.90;;;;;;4186875;28;20210;-74
2023/09/22 07:31:00;;;;;;;2.73;1.93;;;15.60;99.90;;;;;;4191032;28;20875;-76
2023/09/22 07:33:02;;;;;;;3.60;1.63;;;15.50;99.90;;;;;;4194531;28;20206;-74
2023/09/22 07:35:04;;;;;;;2.20;1.23;;;15.60;99.90;;;;;;4195967;28;20217;-74
2023/09/22 07:37:10;;;;;;;1.57;1.00;;;15.50;99.90;;;;;;4194177;28;20659;-77
2023/09/22 07:39:13;;;;;;;1.83;1.07;;;15.60;99.90;;;;;;4196697;28;20249;-75
2023/09/22 07:41:14;;;;;;;1.73;1.23;;;15.60;99.90;;;;;;4191305;28;20237;-75
2023/09/22 07:43:16;;;;;;;2.10;1.27;;;15.50;99.90;;;;;;4187621;28;20824;-75
2023/09/22 07:45:19;;;;;;;2.77;1.30;;;15.60;99.90;;;;;;4191355;28;20631;-77
2023/09/22 07:47:20;;;;;;;3.63;1.20;;;15.60;99.90;;;;;;4196141;28;20203;-78
2023/09/22 07:49:23;;;;;;;2.57;1.37;;;15.60;99.90;;;;;;4196841;28;20708;-81
2023/09/22 07:51:25;;;;;;;3.00;1.33;;;15.60;99.90;;;;;;4194925;28;20347;-80
2023/09/22 07:53:30;;;;;;;4.97;1.40;;;15.60;99.90;;;;;;4192141;28;20216;-79
2023/09/22 07:55:32;;;;;;;2.60;1.13;;;15.60;99.90;;;;;;4189529;28;20227;-81
2023/09/22 07:57:35;;;;;;;2.63;1.30;;;15.70;99.90;;;;;;4195308;28;20219;-79
2023/09/22 07:59:37;;;;;;;3.33;1.70;;;15.70;99.90;;;;;;4191571;28;20214;-79
2023/09/22 08:01:42;;;;;;;2.07;1.27;;;15.70;99.90;;;;;;4194112;28;20247;-79
2023/09/22 08:03:44;;;;;;;3.77;1.50;;;15.70;99.90;;;;;;4191023;28;20294;-81
2023/09/22 08:05:48;;;;;;;2.10;1.27;;;15.80;99.90;;;;;;4193417;28;20209;-79
2023/09/22 08:07:50;;;;;;;3.50;1.30;;;15.80;99.90;;;;;;4190135;28;20229;-80
2023/09/22 08:09:52;;;;;;;2.30;1.30;;;15.90;99.90;;;;;;4199012;28;20506;-80
2023/09/22 08:11:56;;;;;;;3.23;1.50;;;15.80;99.90;;;;;;4192567;28;20231;-81
2023/09/22 08:13:58;;;;;;;2.40;1.50;;;15.80;99.90;;;;;;4190109;28;20307;-78
2023/09/22 08:15:59;;;;;;;6.37;1.50;;;15.90;99.90;;;;;;4191194;28;20202;-76
2023/09/22 08:18:02;;;;;;;2.90;1.40;;;15.90;99.90;;;;;;4191008;28;20226;-78
2023/09/22 08:20:07;;;;;;;3.43;1.50;;;15.90;99.90;;;;;;4194098;28;20209;-76
2023/09/22 08:22:10;;;;;;;1.47;1.20;;;15.90;99.90;;;;;;4194779;28;20259;-76
2023/09/22 08:24:13;;;;;;;3.07;1.57;;;15.90;99.90;;;;;;4194639;28;20685;-76
2023/09/22 08:26:17;;;;;;;4.80;1.20;;;15.90;99.90;;;;;;4186328;28;20269;-76
2023/09/22 08:28:20;;;;;;;2.50;1.20;;;15.90;99.90;;;;;;4188704;28;20202;-76
2023/09/22 08:30:23;;;;;;;4.03;1.70;;;15.90;99.90;;;;;;4200266;28;20207;-78
2023/09/22 08:32:25;;;;;;;4.47;1.20;;;16.00;99.90;;;;;;4187599;28;20235;-75
2023/09/22 08:34:29;;;;;;;2.33;1.20;;;15.90;99.90;;;;;;4186718;28;20220;-76
2023/09/22 08:36:31;;;;;;;3.70;1.37;;;15.90;99.90;;;;;;4194996;28;20689;-76
2023/09/22 08:38:34;;;;;;;4.67;1.33;;;15.90;99.90;;;;;;4197950;28;20207;-76
2023/09/22 08:40:36;;;;;;;2.67;1.23;;;15.90;99.90;;;;;;4193396;28;20621;-79
2023/09/22 08:42:38;;;;;;;1.27;1.10;;;15.90;99.90;;;;;;4195773;28;20220;-77
2023/09/22 08:44:42;;;;;;;1.23;1.10;;;15.90;99.90;;;;;;4189720;28;20216;-77
2023/09/22 08:46:45;;;;;;;2.23;1.10;;;15.90;99.90;;;;;;4190303;28;20209;-78
2023/09/22 08:48:50;;;;;;;1.70;1.20;;;15.90;99.90;;;;;;4192190;28;20574;-76
2023/09/22 08:50:52;;;;;;;2.30;1.07;;;15.90;99.90;;;;;;4191359;28;20218;-76
2023/09/22 08:52:53;;;;;;;2.80;1.10;;;15.90;99.90;;;;;;4188378;28;20833;-77
2023/09/22 08:54:55;;;;;;;2.67;1.50;;;15.90;99.90;;;;;;4192450;28;20231;-78
2023/09/22 08:56:57;;;;;;;2.43;1.20;;;15.90;99.90;;;;;;4185079;28;20212;-76
2023/09/22 08:58:59;;;;;;;2.80;1.20;;;15.90;99.90;;;;;;4195422;28;20686;-77
2023/09/22 09:01:03;;;;;;;1.00;0.90;;;15.90;99.90;;;;;;4191283;28;20227;-77
2023/09/22 09:03:09;;;;;;;1.30;0.90;;;15.90;99.90;;;;;;4193304;28;20256;-77
2023/09/22 09:05:20;;;;;;;2.10;1.07;;;15.90;99.90;;;;;;4191554;28;20187;-78
2023/09/22 09:07:23;;;;;;;2.23;1.00;;;15.90;99.90;;;;;;4192455;28;20779;-80
2023/09/22 09:09:25;;;;;;;3.67;1.00;;;15.90;99.90;;;;;;4191923;28;20210;-81
2023/09/22 09:11:27;;;;;;;0.83;0.70;;;16.00;99.90;;;;;;4197655;28;20230;-81
2023/09/22 09:13:29;;;;;;;1.87;1.00;;;16.10;99.90;;;;;;4194327;28;20217;-81
2023/09/22 09:15:41;;;;;;;3.90;0.90;;;15.90;99.90;;;;;;4195592;28;20222;-80
2023/09/22 09:17:46;;;;;;;1.97;1.00;;;16.20;99.90;;;;;;4199350;28;20218;-80
2023/09/22 09:19:49;;;;;;;1.97;1.10;;;15.90;99.90;;;;;;4202066;28;20213;-78
2023/09/22 09:22:06;;;;;;;2.47;1.30;;;15.90;99.90;;;;;;4209177;28;20291;-80
2023/09/22 09:24:10;;;;;;;3.70;1.03;;;15.90;99.90;;;;;;4207137;28;20232;-80
2023/09/22 09:26:12;;;;;;;1.50;1.00;;;15.90;99.90;;;;;;4207978;28;20206;-79
2023/09/22 09:28:16;;;;;;;4.20;0.90;;;15.90;99.90;;;;;;4199425;28;20200;-80
2023/09/22 09:30:19;;;;;;;1.43;0.70;;;15.90;99.90;;;;;;4204991;28;20203;-81
2023/09/22 09:32:24;;;;;;;3.23;1.40;;;16.10;99.90;;;;;;4192807;28;20236;-79
2023/09/22 09:34:39;;;;;;;2.23;1.10;;;16.00;99.90;;;;;;4177882;28;20304;-78
2023/09/22 09:36:41;;;;;;;3.73;1.50;;;16.00;99.90;;;;;;4197200;28;20623;-79
2023/09/22 09:38:43;;;;;;;2.73;1.70;;;16.00;99.90;;;;;;4196207;28;20273;-78
2023/09/22 09:40:45;;;;;;;2.77;1.17;;;16.00;99.90;;;;;;4195293;28;20221;-79
2023/09/22 09:42:50;;;;;;;2.90;1.80;;;16.10;99.90;;;;;;4197794;28;20666;-79
2023/09/22 09:44:52;;;;;;;2.17;1.20;;;16.10;99.90;;;;;;4196967;28;20199;-79
2023/09/22 09:46:54;;;;;;;3.23;1.10;;;16.20;99.90;;;;;;4196599;28;20211;-79
2023/09/22 09:48:57;;;;;;;7.13;1.20;;;16.20;99.90;;;;;;4188086;28;20214;-79
2023/09/22 09:51:01;;;;;;;3.33;1.00;;;16.30;99.90;;;;;;4194021;28;20228;-78
2023/09/22 09:53:06;;;;;;;4.00;1.00;;;16.30;99.90;;;;;;4197659;28;20213;-77
2023/09/22 09:55:13;;;;;;;2.50;0.90;;;16.40;99.90;;;;;;4200755;28;20288;-79
2023/09/22 09:57:14;;;;;;;2.57;1.17;;;16.40;99.90;;;;;;4196417;28;20265;-78
2023/09/22 09:59:16;;;;;;;4.23;1.10;;;16.50;99.90;;;;;;4190210;28;20250;-78
2023/09/22 10:01:19;;;;;;;1.97;1.03;;;16.50;99.90;;;;;;4195656;28;20258;-75
2023/09/22 10:03:21;;;;;;;2.07;0.90;;;16.40;99.90;;;;;;4195092;28;20216;-78
2023/09/22 10:05:23;;;;;;;1.87;0.90;;;16.50;99.90;;;;;;4193549;28;20863;-78
2023/09/22 10:07:27;;;;;;;2.30;1.00;;;16.50;99.90;;;;;;4192718;28;20200;-78
2023/09/22 10:09:30;;;;;;;2.00;0.90;;;16.50;99.90;;;;;;4194686;28;20676;-81
2023/09/22 10:11:32;;;;;;;1.53;0.80;;;16.50;99.90;;;;;;4193640;28;20221;-80
2023/09/22 10:13:36;;;;;;;2.13;1.10;;;16.50;99.90;;;;;;4192930;28;20593;-81
2023/09/22 10:15:58;;;;;;;2.13;1.10;;;16.50;99.90;;;;;;4194055;28;20286;-81
2023/09/22 10:17:59;;;;;;;3.13;1.00;;;16.60;99.90;;;;;;4193831;28;20193;-81
2023/09/22 10:20:28;;;;;;;1.00;0.90;;;16.50;99.90;;;;;;4195087;28;20220;-82
2023/09/22 10:22:31;;;;;;;3.87;2.40;;;16.50;99.90;;;;;;4186692;28;20245;-81
2023/09/22 10:24:38;;;;;;;5.43;1.70;;;16.50;99.90;;;;;;4194249;28;20231;-82
2023/09/22 10:27:13;;;;;;;2.60;1.23;;;16.50;99.90;;;;;;4190533;28;20205;-81
2023/09/22 10:29:37;;;;;;;6.40;1.70;;;16.60;99.90;;;;;;4189491;28;20203;-82
2023/09/22 10:32:23;;;;;;;5.00;1.43;;;16.60;99.90;;;;;;4194689;28;20232;-80
2023/09/22 10:34:46;;;;;;;1.97;1.10;;;16.60;99.90;;;;;;4194194;28;20300;-83
2023/09/22 10:36:48;;;;;;;1.17;0.90;;;16.60;99.90;;;;;;4194051;28;20201;-82
2023/09/22 10:38:56;;;;;;;1.90;1.20;;;16.70;99.90;;;;;;4194203;28;20207;-81
2023/09/22 10:41:06;;;;;;;2.10;1.03;;;16.70;99.90;;;;;;4194816;28;20242;-80
2023/09/22 10:43:09;;;;;;;3.17;1.07;;;16.60;99.90;;;;;;4194509;28;20588;-82